createdAt,value
2018-07-28T00:00:29.485Z,97365.75
2018-07-28T00:02:57.669Z,97357.61
2018-07-28T00:05:25.889Z,97353.88
2018-07-28T00:07:54.085Z,97350.16
2018-07-28T00:10:22.289Z,97350.63
2018-07-28T00:12:50.524Z,97354.17
2018-07-28T00:15:20.552Z,97348.28
2018-07-28T00:17:48.810Z,97357.34
2018-07-28T00:20:16.988Z,97356.44
2018-07-28T00:22:45.470Z,97357.95
2018-07-28T00:25:13.745Z,97356.98
2018-07-28T00:27:42.274Z,97353.36
2018-07-28T00:30:11.984Z,97348.25
2018-07-28T00:32:40.158Z,97349.39
2018-07-28T00:35:08.366Z,97348.18
2018-07-28T00:37:37.029Z,97343.39
2018-07-28T00:40:05.907Z,97343.37
2018-07-28T00:42:34.353Z,97349.27
2018-07-28T00:45:02.546Z,97347.15
2018-07-28T00:47:30.758Z,97344.03
2018-07-28T00:49:58.950Z,97346.26
2018-07-28T00:52:27.133Z,97340.55
2018-07-28T00:54:55.319Z,97343.91
2018-07-28T00:57:23.501Z,97343.84
2018-07-28T00:59:51.705Z,97349.06
2018-07-28T01:02:19.877Z,97347.75
2018-07-28T01:04:48.053Z,97344.98
2018-07-28T01:07:16.493Z,97342.53
2018-07-28T01:09:44.721Z,97344.45
2018-07-28T01:12:12.930Z,97333.55
2018-07-28T01:14:41.221Z,97328.38
2018-07-28T01:17:09.811Z,97320.68
2018-07-28T01:19:38.368Z,97322.91
2018-07-28T01:22:06.561Z,97324.92
2018-07-28T01:24:34.863Z,97317.77
2018-07-28T01:27:03.121Z,97314.22
2018-07-28T01:29:31.308Z,97315.00
2018-07-28T01:31:59.496Z,97310.06
2018-07-28T01:34:27.687Z,97311.94
2018-07-28T01:36:56.117Z,97313.33
2018-07-28T01:39:24.382Z,97312.97
2018-07-28T01:41:52.589Z,97304.13
2018-07-28T01:44:20.843Z,97311.33
2018-07-28T01:46:49.011Z,97310.72
2018-07-28T01:49:17.460Z,97308.27
2018-07-28T01:51:45.678Z,97305.78
2018-07-28T01:54:13.860Z,97308.73
2018-07-28T01:56:42.116Z,97302.61
2018-07-28T01:59:10.326Z,97309.70
2018-07-28T02:01:38.568Z,97307.83
2018-07-28T02:04:06.762Z,97310.90
2018-07-28T02:06:34.967Z,97306.39
2018-07-28T02:09:03.218Z,97306.15
2018-07-28T02:11:31.394Z,97301.52
2018-07-28T02:13:59.584Z,97307.92
2018-07-28T02:16:28.133Z,97305.10
2018-07-28T02:18:56.363Z,97303.48
2018-07-28T02:21:24.606Z,97311.23
2018-07-28T02:23:52.825Z,97307.74
2018-07-28T02:26:21.001Z,97298.86
2018-07-28T02:28:49.213Z,97297.59
2018-07-28T02:31:17.461Z,97293.92
2018-07-28T02:33:45.649Z,97296.05
2018-07-28T02:36:13.926Z,97288.83
2018-07-28T02:38:42.213Z,97283.91
2018-07-28T02:41:10.463Z,97285.11
2018-07-28T02:43:38.644Z,97284.96
2018-07-28T02:46:06.872Z,97296.63
2018-07-28T02:48:34.995Z,97283.47
2018-07-28T02:51:03.236Z,97284.05
2018-07-28T02:53:31.437Z,97294.58
2018-07-28T02:55:59.688Z,97286.33
2018-07-28T02:58:28.030Z,97281.47
2018-07-28T03:00:56.473Z,97290.99
2018-07-28T03:03:24.661Z,97287.59
2018-07-28T03:05:52.979Z,97286.16
2018-07-28T03:08:21.139Z,97281.75
2018-07-28T03:10:49.390Z,97274.57
2018-07-28T03:13:17.690Z,97280.00
2018-07-28T03:15:45.956Z,97286.85
2018-07-28T03:18:14.197Z,97283.81
2018-07-28T03:20:42.388Z,97281.15
2018-07-28T03:23:10.576Z,97277.52
2018-07-28T03:25:38.818Z,97278.94
2018-07-28T03:28:07.026Z,97277.88
2018-07-28T03:30:35.270Z,97286.48
2018-07-28T03:33:03.474Z,97290.58
2018-07-28T03:35:31.657Z,97284.00
2018-07-28T03:37:59.830Z,97295.13
2018-07-28T03:40:28.101Z,97290.08
2018-07-28T03:42:56.291Z,97291.55
2018-07-28T03:45:24.535Z,97288.64
2018-07-28T03:47:52.713Z,97290.89
2018-07-28T03:50:20.985Z,97291.71
2018-07-28T03:52:49.157Z,97295.06
2018-07-28T03:55:17.413Z,97295.95
2018-07-28T03:57:45.612Z,97295.03
2018-07-28T04:00:13.803Z,97299.95
2018-07-28T04:02:42.370Z,97298.07
2018-07-28T04:05:11.878Z,97308.23
2018-07-28T04:07:40.602Z,97309.38
2018-07-28T04:10:09.690Z,97310.40
2018-07-28T04:12:38.110Z,97311.04
2018-07-28T04:15:09.515Z,97308.74
2018-07-28T04:17:55.018Z,97318.17
2018-07-28T04:20:24.726Z,97315.66
2018-07-28T04:22:53.445Z,97325.31
2018-07-28T04:25:22.149Z,97330.98
2018-07-28T04:27:50.673Z,97323.05
2018-07-28T04:30:18.953Z,97325.87
2018-07-28T04:32:47.188Z,97331.45
2018-07-28T04:35:15.381Z,97333.16
2018-07-28T04:37:43.621Z,97332.25
2018-07-28T04:40:12.676Z,97336.46
2018-07-28T04:42:41.985Z,97328.30
2018-07-28T04:45:10.185Z,97328.38
2018-07-28T04:47:38.379Z,97336.52
2018-07-28T04:50:06.586Z,97331.87
2018-07-28T04:52:34.813Z,97327.30
2018-07-28T04:55:03.125Z,97327.13
2018-07-28T04:57:31.732Z,97322.78
2018-07-28T04:59:59.910Z,97323.66
2018-07-28T05:02:28.750Z,97320.55
2018-07-28T05:04:57.472Z,97314.64
2018-07-28T05:07:26.434Z,97315.71
2018-07-28T05:09:55.071Z,97318.97
2018-07-28T05:12:23.800Z,97323.77
2018-07-28T05:14:51.986Z,97322.69
2018-07-28T05:17:20.414Z,97326.55
2018-07-28T05:19:48.614Z,97326.28
2018-07-28T05:22:17.057Z,97330.30
2018-07-28T05:24:45.278Z,97330.27
2018-07-28T05:27:13.826Z,97332.31
2018-07-28T05:29:42.050Z,97335.63
2018-07-28T05:32:10.236Z,97339.88
2018-07-28T05:34:38.476Z,97342.21
2018-07-28T05:37:06.800Z,97344.05
2018-07-28T05:39:35.133Z,97332.23
2018-07-28T05:42:03.844Z,97336.11
2018-07-28T05:44:32.038Z,97336.34
2018-07-28T05:47:00.225Z,97333.83
2018-07-28T05:49:28.649Z,97334.86
2018-07-28T05:51:57.034Z,97331.91
2018-07-28T05:54:25.251Z,97335.03
2018-07-28T05:56:53.597Z,97333.92
2018-07-28T05:59:21.825Z,97338.35
2018-07-28T06:01:50.083Z,97340.11
2018-07-28T06:04:18.307Z,97346.27
2018-07-28T06:06:46.547Z,97336.39
2018-07-28T06:09:14.877Z,97346.09
2018-07-28T06:11:43.476Z,97339.84
2018-07-28T06:14:11.687Z,97341.63
2018-07-28T06:16:39.922Z,97355.22
2018-07-28T06:19:08.226Z,97354.84
2018-07-28T06:21:36.722Z,97352.09
2018-07-28T06:24:04.948Z,97355.13
2018-07-28T06:26:33.178Z,97351.82
2018-07-28T06:29:01.570Z,97354.10
2018-07-28T06:31:29.931Z,97347.53
2018-07-28T06:33:58.136Z,97353.34
2018-07-28T06:36:26.371Z,97347.84
2018-07-28T06:38:54.595Z,97352.72
2018-07-28T06:41:22.860Z,97355.91
2018-07-28T06:43:51.024Z,97360.68
2018-07-28T06:46:19.241Z,97357.42
2018-07-28T06:48:47.437Z,97357.15
2018-07-28T06:51:15.621Z,97356.37
2018-07-28T06:53:43.958Z,97358.78
2018-07-28T06:56:12.267Z,97364.41
2018-07-28T06:58:40.536Z,97357.94
2018-07-28T07:01:08.617Z,97352.34
2018-07-28T07:03:36.780Z,97346.02
2018-07-28T07:06:05.925Z,97350.26
2018-07-28T07:08:34.153Z,97348.72
2018-07-28T07:11:02.371Z,97349.81
2018-07-28T07:13:30.875Z,97347.54
2018-07-28T07:15:59.064Z,97346.20
2018-07-28T07:18:27.304Z,97349.59
2018-07-28T07:20:55.487Z,97347.48
2018-07-28T07:23:23.910Z,97340.63
2018-07-28T07:25:52.110Z,97343.12
2018-07-28T07:28:21.658Z,97338.19
2018-07-28T07:30:49.992Z,97337.73
2018-07-28T07:33:18.454Z,97335.70
2018-07-28T07:35:46.694Z,97336.54
2018-07-28T07:38:16.603Z,97349.56
2018-07-28T07:40:45.415Z,97348.17
2018-07-28T07:43:13.554Z,97348.00
2018-07-28T07:45:41.869Z,97343.80
2018-07-28T07:48:10.077Z,97341.33
2018-07-28T07:50:38.249Z,97343.20
2018-07-28T07:53:06.477Z,97347.69
2018-07-28T07:55:34.833Z,97350.61
2018-07-28T07:58:03.017Z,97350.06
2018-07-28T08:00:31.813Z,97339.13
2018-07-28T08:03:00.231Z,97341.59
2018-07-28T08:05:28.398Z,97344.72
2018-07-28T08:07:56.641Z,97344.62
2018-07-28T08:10:24.947Z,97347.09
2018-07-28T08:12:53.178Z,97344.83
2018-07-28T08:15:23.109Z,97352.98
2018-07-28T08:17:51.378Z,97349.98
2018-07-28T08:20:19.592Z,97345.34
2018-07-28T08:22:47.845Z,97345.99
2018-07-28T08:25:16.095Z,97341.30
2018-07-28T08:27:44.272Z,97346.90
2018-07-28T08:30:12.765Z,97341.74
2018-07-28T08:32:40.968Z,97343.27
2018-07-28T08:35:09.860Z,97347.23
2018-07-28T08:37:38.436Z,97346.91
2018-07-28T08:40:06.857Z,97352.47
2018-07-28T08:42:35.318Z,97351.00
2018-07-28T08:45:03.587Z,97343.67
2018-07-28T08:47:32.072Z,97348.26
2018-07-28T08:50:00.402Z,97345.94
2018-07-28T08:52:28.990Z,97348.41
2018-07-28T08:54:57.172Z,97351.35
2018-07-28T08:57:25.350Z,97353.39
2018-07-28T08:59:54.022Z,97352.93
2018-07-28T09:02:22.246Z,97350.30
2018-07-28T09:04:50.413Z,97353.77
2018-07-28T09:07:18.642Z,97354.22
2018-07-28T09:09:46.913Z,97347.80
2018-07-28T09:12:15.348Z,97352.30
2018-07-28T09:14:44.069Z,97346.73
2018-07-28T09:17:12.657Z,97341.20
2018-07-28T09:19:40.939Z,97340.74
2018-07-28T09:22:09.146Z,97338.30
2018-07-28T09:24:37.376Z,97342.88
2018-07-28T09:27:05.769Z,97341.79
2018-07-28T09:29:34.065Z,97348.35
2018-07-28T09:32:02.628Z,97349.19
2018-07-28T09:34:30.916Z,97348.59
2018-07-28T09:36:59.237Z,97345.06
2018-07-28T09:39:27.474Z,97349.23
2018-07-28T09:41:55.880Z,97344.99
2018-07-28T09:44:24.110Z,97352.49
2018-07-28T09:46:52.402Z,97350.48
2018-07-28T09:49:20.572Z,97347.94
2018-07-28T09:51:48.994Z,97349.41
2018-07-28T09:54:17.474Z,97341.70
2018-07-28T09:56:45.794Z,97345.57
2018-07-28T09:59:13.986Z,97348.44
2018-07-28T10:01:42.194Z,97346.39
2018-07-28T10:04:10.376Z,97341.87
2018-07-28T10:06:38.604Z,97333.30
2018-07-28T10:09:09.541Z,97335.16
2018-07-28T10:11:37.701Z,97330.42
2018-07-28T10:14:06.137Z,97332.08
2018-07-28T10:16:34.414Z,97322.23
2018-07-28T10:19:02.629Z,97321.11
2018-07-28T10:21:30.925Z,97322.72
2018-07-28T10:23:59.173Z,97318.82
2018-07-28T10:26:27.765Z,97320.55
2018-07-28T10:28:55.945Z,97310.55
2018-07-28T10:31:24.396Z,97314.89
2018-07-28T10:33:52.627Z,97317.37
2018-07-28T10:36:20.884Z,97311.83
2018-07-28T10:38:49.058Z,97313.06
2018-07-28T10:41:17.644Z,97308.04
2018-07-28T10:43:45.862Z,97300.09
2018-07-28T10:46:14.245Z,97306.92
2018-07-28T10:48:42.650Z,97305.51
2018-07-28T10:51:11.176Z,97311.80
2018-07-28T10:53:39.418Z,97311.01
2018-07-28T10:56:07.646Z,97309.34
2018-07-28T10:58:35.941Z,97302.13
2018-07-28T11:01:04.249Z,97313.53
2018-07-28T11:03:32.413Z,97294.33
2018-07-28T11:06:00.716Z,97292.20
2018-07-28T11:08:28.930Z,97296.28
2018-07-28T11:10:57.151Z,97293.52
2018-07-28T11:13:25.339Z,97287.55
2018-07-28T11:15:53.608Z,97286.80
2018-07-28T11:18:21.785Z,97287.23
2018-07-28T11:20:50.161Z,97271.70
2018-07-28T11:23:57.185Z,97257.48
2018-07-28T11:26:25.464Z,97254.19
2018-07-28T11:28:54.427Z,97254.61
2018-07-28T11:31:34.784Z,97251.58
2018-07-28T11:34:14.869Z,97243.69
2018-07-28T11:36:55.073Z,97246.98
2018-07-28T11:39:34.701Z,97238.31
2018-07-28T11:42:14.434Z,97242.81
2018-07-28T11:44:54.029Z,97246.12
2018-07-28T11:47:22.292Z,97244.59
2018-07-28T11:49:50.534Z,97249.06
2018-07-28T11:52:18.753Z,97252.48
2018-07-28T11:54:47.008Z,97259.70
2018-07-28T11:57:15.168Z,97261.42
2018-07-28T11:59:43.358Z,97264.48
2018-07-28T12:02:11.633Z,97257.84
2018-07-28T12:04:39.794Z,97257.24
2018-07-28T12:07:07.970Z,97251.64
2018-07-28T12:09:36.162Z,97243.42
2018-07-28T12:12:04.426Z,97248.66
2018-07-28T12:14:32.726Z,97245.56
2018-07-28T12:17:00.982Z,97247.44
2018-07-28T12:19:29.501Z,97240.93
2018-07-28T12:21:57.737Z,97243.70
2018-07-28T12:24:25.920Z,97233.55
2018-07-28T12:26:54.113Z,97236.72
2018-07-28T12:29:22.683Z,97239.85
2018-07-28T12:31:50.945Z,97243.97
2018-07-28T12:34:19.141Z,97237.28
2018-07-28T12:36:47.333Z,97244.72
2018-07-28T12:39:15.500Z,97238.40
2018-07-28T12:41:43.733Z,97243.59
2018-07-28T12:44:11.976Z,97248.02
2018-07-28T12:46:40.215Z,97252.84
2018-07-28T12:49:08.686Z,97257.28
2018-07-28T12:51:36.939Z,97258.43
2018-07-28T12:54:05.394Z,97256.39
2018-07-28T12:56:33.614Z,97261.36
2018-07-28T12:59:01.870Z,97270.44
2018-07-28T13:01:30.090Z,97282.03
2018-07-28T13:03:58.399Z,97277.11
2018-07-28T13:06:26.532Z,97274.00
2018-07-28T13:08:54.822Z,97275.61
2018-07-28T13:11:23.034Z,97272.66
2018-07-28T13:13:51.218Z,97273.94
2018-07-28T13:16:19.453Z,97274.60
2018-07-28T13:18:47.605Z,97270.39
2018-07-28T13:21:16.117Z,97264.13
2018-07-28T13:23:44.429Z,97254.30
2018-07-28T13:26:12.878Z,97257.37
2018-07-28T13:28:41.029Z,97244.88
2018-07-28T13:31:09.207Z,97247.00
2018-07-28T13:33:37.547Z,97247.39
2018-07-28T13:36:05.821Z,97243.53
2018-07-28T13:38:33.998Z,97247.88
2018-07-28T13:41:02.169Z,97251.23
2018-07-28T13:43:30.380Z,97256.44
2018-07-28T13:45:58.632Z,97259.69
2018-07-28T13:48:26.893Z,97262.10
2018-07-28T13:50:55.057Z,97271.34
2018-07-28T13:53:23.679Z,97273.45
2018-07-28T13:55:51.814Z,97284.20
2018-07-28T13:58:20.013Z,97294.47
2018-07-28T14:00:48.272Z,97296.78
2018-07-28T14:03:16.552Z,97290.07
2018-07-28T14:05:44.922Z,97287.70
2018-07-28T14:08:13.110Z,97292.08
2018-07-28T14:10:41.378Z,97296.66
2018-07-28T14:13:09.589Z,97295.20
2018-07-28T14:15:37.794Z,97299.58
2018-07-28T14:18:06.242Z,97307.42
2018-07-28T14:20:34.410Z,97314.81
2018-07-28T14:23:02.666Z,97324.73
2018-07-28T14:25:30.866Z,97319.53
2018-07-28T14:27:59.226Z,97324.21
2018-07-28T14:30:27.446Z,97326.47
2018-07-28T14:32:55.614Z,97325.97
2018-07-28T14:35:23.795Z,97325.44
2018-07-28T14:37:52.166Z,97337.67
2018-07-28T14:40:20.390Z,97331.11
2018-07-28T14:42:48.651Z,97332.94
2018-07-28T14:45:17.141Z,97342.38
2018-07-28T14:47:45.365Z,97346.95
2018-07-28T14:50:13.581Z,97345.87
2018-07-28T14:52:42.077Z,97339.66
2018-07-28T14:55:10.362Z,97337.26
2018-07-28T14:57:38.530Z,97347.87
2018-07-28T15:00:07.161Z,97350.31
2018-07-28T15:02:35.377Z,97360.64
2018-07-28T15:05:03.603Z,97366.66
2018-07-28T15:07:31.782Z,97362.09
2018-07-28T15:09:59.967Z,97356.44
2018-07-28T15:12:28.181Z,97357.25
2018-07-28T15:14:56.457Z,97363.05
2018-07-28T15:17:24.722Z,97364.92
2018-07-28T15:19:52.892Z,97369.69
2018-07-28T15:22:21.088Z,97363.50
2018-07-28T15:24:49.380Z,97360.65
2018-07-28T15:27:17.626Z,97361.50
2018-07-28T15:29:45.934Z,97358.62
2018-07-28T15:32:14.121Z,97354.53
2018-07-28T15:34:42.345Z,97357.10
2018-07-28T15:37:10.568Z,97351.52
2018-07-28T15:39:38.809Z,97355.87
2018-07-28T15:42:07.217Z,97353.11
2018-07-28T15:44:35.511Z,97343.44
2018-07-28T15:47:03.763Z,97349.48
2018-07-28T15:49:32.292Z,97344.20
2018-07-28T15:52:00.503Z,97340.98
2018-07-28T15:54:28.737Z,97336.70
2018-07-28T15:56:56.892Z,97337.39
2018-07-28T15:59:25.086Z,97335.95
2018-07-28T16:01:53.375Z,97335.54
2018-07-28T16:04:22.735Z,97344.48
2018-07-28T16:06:51.126Z,97342.52
2018-07-28T16:09:19.334Z,97334.55
2018-07-28T16:11:47.664Z,97339.33
2018-07-28T16:14:15.917Z,97334.11
2018-07-28T16:16:44.146Z,97332.44
2018-07-28T16:19:12.480Z,97329.08
2018-07-28T16:21:40.734Z,97330.31
2018-07-28T16:24:09.482Z,97333.80
2018-07-28T16:26:37.682Z,97336.65
2018-07-28T16:29:05.921Z,97335.28
2018-07-28T16:31:34.148Z,97335.89
2018-07-28T16:34:02.414Z,97331.92
2018-07-28T16:36:30.616Z,97336.83
2018-07-28T16:38:58.818Z,97341.20
2018-07-28T16:41:27.263Z,97341.88
2018-07-28T16:43:55.539Z,97344.56
2018-07-28T16:46:24.718Z,97345.33
2018-07-28T16:48:53.309Z,97349.14
2018-07-28T16:51:21.511Z,97348.50
2018-07-28T16:53:49.781Z,97345.12
2018-07-28T16:56:17.963Z,97353.83
2018-07-28T16:58:46.201Z,97356.71
2018-07-28T17:01:14.398Z,97364.59
2018-07-28T17:03:42.647Z,97362.13
2018-07-28T17:06:10.939Z,97370.11
2018-07-28T17:08:39.194Z,97375.86
2018-07-28T17:11:07.451Z,97375.96
2018-07-28T17:13:35.714Z,97378.45
2018-07-28T17:16:03.918Z,97378.25
2018-07-28T17:18:32.091Z,97384.58
2018-07-28T17:21:00.382Z,97391.28
2018-07-28T17:23:28.563Z,97388.80
2018-07-28T17:25:56.860Z,97387.47
2018-07-28T17:28:25.118Z,97389.27
2018-07-28T17:30:53.697Z,97390.31
2018-07-28T17:33:21.862Z,97396.16
2018-07-28T17:35:50.190Z,97398.70
2018-07-28T17:38:18.418Z,97396.41
2018-07-28T17:40:46.783Z,97403.33
2018-07-28T17:43:14.909Z,97407.38
2018-07-28T17:45:43.248Z,97415.55
2018-07-28T17:48:11.443Z,97421.66
2018-07-28T17:50:39.645Z,97421.33
2018-07-28T17:53:08.173Z,97427.38
2018-07-28T17:55:36.441Z,97421.69
2018-07-28T17:58:05.527Z,97432.87
2018-07-28T18:00:33.713Z,97438.02
2018-07-28T18:03:01.885Z,97436.77
2018-07-28T18:05:30.068Z,97442.88
2018-07-28T18:07:58.632Z,97441.02
2018-07-28T18:10:26.914Z,97443.33
2018-07-28T18:12:55.119Z,97454.23
2018-07-28T18:15:25.145Z,97460.15
2018-07-28T18:17:53.328Z,97467.60
2018-07-28T18:20:21.553Z,97466.20
2018-07-28T18:22:49.740Z,97472.57
2018-07-28T18:25:17.914Z,97479.09
2018-07-28T18:27:46.193Z,97478.33
2018-07-28T18:30:14.392Z,97480.84
2018-07-28T18:32:42.608Z,97484.11
2018-07-28T18:35:10.778Z,97481.16
2018-07-28T18:37:39.026Z,97482.36
2018-07-28T18:40:07.460Z,97491.84
2018-07-28T18:42:35.662Z,97492.45
2018-07-28T18:45:04.100Z,97488.83
2018-07-28T18:47:32.369Z,97490.22
2018-07-28T18:50:00.634Z,97491.95
2018-07-28T18:52:28.845Z,97500.00
2018-07-28T18:54:57.021Z,97501.42
2018-07-28T18:57:25.301Z,97507.46
2018-07-28T18:59:53.505Z,97511.05
2018-07-28T19:02:21.701Z,97519.75
2018-07-28T19:04:50.000Z,97526.23
2018-07-28T19:07:18.198Z,97529.25
2018-07-28T19:09:50.587Z,97534.84
2018-07-28T19:12:22.940Z,97539.15
2018-07-28T19:14:51.366Z,97558.06
2018-07-28T19:17:19.614Z,97562.26
2018-07-28T19:19:47.876Z,97564.61
2018-07-28T19:22:21.547Z,97565.84
2018-07-28T19:24:49.700Z,97573.12
2018-07-28T19:27:17.926Z,97581.03
2018-07-28T19:29:46.221Z,97584.78
2018-07-28T19:32:14.394Z,97582.78
2018-07-28T19:34:42.763Z,97588.84
2018-07-28T19:37:16.267Z,97598.64
2018-07-28T19:39:44.425Z,97604.65
2018-07-28T19:42:18.202Z,97607.37
2018-07-28T19:44:46.396Z,97612.51
2018-07-28T19:47:15.292Z,97607.94
2018-07-28T19:49:43.786Z,97612.68
2018-07-28T19:52:11.946Z,97620.38
2018-07-28T19:54:40.450Z,97622.01
2018-07-28T19:57:08.636Z,97620.56
2018-07-28T19:59:36.794Z,97624.58
2018-07-28T20:02:04.966Z,97626.95
2018-07-28T20:04:33.238Z,97624.54
2018-07-28T20:07:01.426Z,97620.48
2018-07-28T20:09:29.648Z,97624.16
2018-07-28T20:11:58.682Z,97619.36
2018-07-28T20:14:26.969Z,97622.77
2018-07-28T20:16:55.158Z,97622.28
2018-07-28T20:19:23.387Z,97625.14
2018-07-28T20:21:51.545Z,97617.88
2018-07-28T20:24:19.741Z,97622.84
2018-07-28T20:26:47.927Z,97626.72
2018-07-28T20:29:16.119Z,97622.13
2018-07-28T20:31:44.477Z,97624.56
2018-07-28T20:34:12.655Z,97632.76
2018-07-28T20:36:40.829Z,97622.02
2018-07-28T20:39:10.500Z,97624.76
2018-07-28T20:41:38.869Z,97629.67
2018-07-28T20:44:07.038Z,97631.98
2018-07-28T20:46:35.254Z,97634.70
2018-07-28T20:49:03.539Z,97643.37
2018-07-28T20:51:31.640Z,97643.33
2018-07-28T20:53:59.872Z,97643.88
2018-07-28T20:56:28.072Z,97646.57
2018-07-28T20:58:56.331Z,97646.18
2018-07-28T21:01:24.515Z,97654.02
2018-07-28T21:03:53.104Z,97646.44
2018-07-28T21:06:21.290Z,97645.95
2018-07-28T21:08:49.816Z,97651.88
2018-07-28T21:11:18.086Z,97649.33
2018-07-28T21:13:46.310Z,97657.34
2018-07-28T21:16:14.575Z,97654.45
2018-07-28T21:18:43.157Z,97660.80
2018-07-28T21:21:11.346Z,97662.30
2018-07-28T21:23:46.177Z,97658.63
2018-07-28T21:26:14.425Z,97660.91
2018-07-28T21:28:42.829Z,97663.48
2018-07-28T21:31:11.161Z,97660.86
2018-07-28T21:33:39.406Z,97669.50
2018-07-28T21:36:07.533Z,97672.73
2018-07-28T21:38:36.042Z,97680.75
2018-07-28T21:41:04.403Z,97681.78
2018-07-28T21:43:32.670Z,97680.09
2018-07-28T21:46:00.871Z,97687.72
2018-07-28T21:48:29.121Z,97688.14
2018-07-28T21:50:57.686Z,97686.05
2018-07-28T21:53:25.890Z,97692.96
2018-07-28T21:55:54.078Z,97697.75
2018-07-28T21:58:22.388Z,97701.05
2018-07-28T22:01:03.300Z,97699.76
2018-07-28T22:03:31.633Z,97705.19
2018-07-28T22:05:59.799Z,97711.83
2018-07-28T22:08:28.038Z,97710.62
2018-07-28T22:10:56.218Z,97716.86
2018-07-28T22:13:24.744Z,97722.95
2018-07-28T22:15:52.977Z,97727.39
2018-07-28T22:18:21.217Z,97732.37
2018-07-28T22:20:50.415Z,97735.14
2018-07-28T22:23:18.653Z,97734.14
2018-07-28T22:25:46.845Z,97730.08
2018-07-28T22:28:15.115Z,97731.25
2018-07-28T22:30:43.404Z,97728.88
2018-07-28T22:33:11.608Z,97739.22
2018-07-28T22:35:39.805Z,97740.34
2018-07-28T22:38:08.011Z,97745.87
2018-07-28T22:40:36.280Z,97744.15
2018-07-28T22:43:04.518Z,97733.41
2018-07-28T22:45:33.083Z,97738.37
2018-07-28T22:48:01.250Z,97734.50
2018-07-28T22:50:29.425Z,97732.48
2018-07-28T22:52:57.636Z,97732.91
2018-07-28T22:55:25.800Z,97737.80
2018-07-28T22:57:54.018Z,97747.78
2018-07-28T23:00:22.270Z,97749.36
2018-07-28T23:02:50.528Z,97746.74
2018-07-28T23:05:18.788Z,97748.84
2018-07-28T23:07:47.057Z,97753.10
2018-07-28T23:10:15.349Z,97750.73
2018-07-28T23:12:43.577Z,97753.66
2018-07-28T23:15:12.266Z,97753.85
2018-07-28T23:17:40.794Z,97750.31
2018-07-28T23:20:08.987Z,97762.91
2018-07-28T23:22:37.197Z,97757.90
2018-07-28T23:25:06.496Z,97761.34
2018-07-28T23:27:34.649Z,97771.36
2018-07-28T23:30:03.121Z,97765.61
2018-07-28T23:32:31.364Z,97768.98
2018-07-28T23:34:59.523Z,97757.22
2018-07-28T23:37:27.735Z,97761.46
2018-07-28T23:39:56.213Z,97766.40
2018-07-28T23:42:24.393Z,97761.17
2018-07-28T23:44:52.667Z,97754.36
2018-07-28T23:47:20.830Z,97758.88
2018-07-28T23:49:49.018Z,97763.52
2018-07-28T23:52:17.200Z,97772.99
2018-07-28T23:54:45.430Z,97773.63
2018-07-28T23:57:13.648Z,97767.08
2018-07-28T23:59:41.908Z,97769.88
